Time;durP1;ratioP1;P1;durP2;ratioP2;P2;SDS_P1;SDS_P2;PMS_P1;PMS_P2;Temp;Humidity;BMP_temperature;BMP_pressure;BME280_temperature;BME280_humidity;BME280_pressure;Samples;Min_cycle;Max_cycle;Signal;HPM_P1;HPM_P2
2022/03/15 00:00:09;;;;;;;;;4.75;4.75;;;;;12.46;51.36;101836.69;5054929;28;45309;-60
2022/03/15 00:02:35;;;;;;;;;5.40;4.80;;;;;12.52;51.54;101832.28;5076863;27;46046;-59
2022/03/15 00:05:01;;;;;;;;;9.50;6.25;;;;;12.34;51.29;101803.31;5050592;28;46365;-60
2022/03/15 00:07:26;;;;;;;;;9.25;5.25;;;;;12.52;50.99;101825.91;5089600;27;46063;-58
2022/03/15 00:09:52;;;;;;;;;7.25;4.50;;;;;12.53;50.59;101838.66;5057741;27;45553;-57
2022/03/15 00:12:17;;;;;;;;;11.00;8.50;;;;;12.51;50.75;101827.81;5057313;28;45842;-59
2022/03/15 00:14:44;;;;;;;;;9.00;7.75;;;;;12.54;50.94;101824.66;5090263;27;45421;-59
2022/03/15 00:17:12;;;;;;;;;7.20;5.60;;;;;12.55;51.23;101828.28;5057332;28;46563;-59
2022/03/15 00:19:38;;;;;;;;;8.40;6.20;;;;;12.56;51.55;101818.97;5057272;28;45390;-59
2022/03/15 00:22:04;;;;;;;;;7.75;7.75;;;;;12.51;50.92;101807.69;5057519;28;45397;-60
2022/03/15 00:24:29;;;;;;;;;14.20;5.60;;;;;12.55;51.72;101817.25;5073177;27;45395;-58
2022/03/15 00:26:55;;;;;;;;;7.75;6.50;;;;;12.32;51.08;101779.78;5056507;28;45327;-58
2022/03/15 00:29:23;;;;;;;;;8.25;6.00;;;;;12.55;51.33;101818.09;5055862;28;45360;-59
2022/03/15 00:31:49;;;;;;;;;9.60;6.20;;;;;12.56;51.38;101816.22;5056954;28;45441;-58
2022/03/15 00:34:14;;;;;;;;;9.25;8.00;;;;;12.52;51.44;101817.63;5090049;27;45465;-59
2022/03/15 00:36:40;;;;;;;;;11.75;8.00;;;;;12.52;51.13;101823.16;5057062;28;46165;-59
2022/03/15 00:39:05;;;;;;;;;5.00;4.75;;;;;12.43;51.14;101803.19;5056788;28;45436;-60
2022/03/15 00:41:31;;;;;;;;;7.00;5.75;;;;;12.44;51.18;101807.63;5089769;27;45402;-58
2022/03/15 00:43:57;;;;;;;;;10.00;5.00;;;;;11.98;51.48;101737.31;5057155;28;45355;-58
2022/03/15 00:46:23;;;;;;;;;5.25;4.50;;;;;12.41;50.89;101805.28;5072428;28;45317;-58
2022/03/15 00:48:48;;;;;;;;;4.25;4.25;;;;;12.42;51.38;101813.34;5057219;28;45285;-58
2022/03/15 00:51:14;;;;;;;;;7.50;5.25;;;;;12.41;51.49;101808.88;5056962;28;45353;-58
2022/03/15 00:53:40;;;;;;;;;5.00;5.00;;;;;12.16;51.44;101756.13;5072719;28;45347;-59
2022/03/15 00:56:05;;;;;;;;;8.00;5.00;;;;;12.37;50.75;101790.22;5056364;28;46514;-59
2022/03/15 00:58:31;;;;;;;;;9.75;7.00;;;;;12.41;51.77;101806.13;5056633;28;45396;-59
2022/03/15 01:00:56;;;;;;;;;3.25;3.25;;;;;12.41;51.30;101794.25;5056544;28;45455;-59
2022/03/15 01:03:22;;;;;;;;;5.00;5.00;;;;;12.39;51.64;101788.94;5057015;28;45625;-59
2022/03/15 01:05:47;;;;;;;;;6.50;5.50;;;;;12.42;51.82;101795.94;5056226;28;45510;-59
2022/03/15 01:08:14;;;;;;;;;5.00;5.00;;;;;12.21;51.43;101750.88;5056550;28;45344;-59
2022/03/15 01:10:40;;;;;;;;;4.00;4.00;;;;;12.39;51.45;101786.19;5056705;28;45407;-58
2022/03/15 01:13:06;;;;;;;;;4.80;4.40;;;;;12.43;52.27;101801.28;5056544;28;45562;-59
2022/03/15 01:15:38;;;;;;;;;10.00;5.00;;;;;12.41;51.63;101795.13;5056618;28;45406;-59
2022/03/15 01:18:04;;;;;;;;;6.40;6.20;;;;;12.31;51.84;101778.06;5055658;28;45478;-59
2022/03/15 01:20:29;;;;;;;;;7.00;5.25;;;;;12.39;51.70;101780.69;5056389;28;45393;-59
2022/03/15 01:22:55;;;;;;;;;8.25;4.50;;;;;12.32;51.68;101775.13;5056493;28;45579;-59
2022/03/15 01:25:20;;;;;;;;;5.00;5.00;;;;;12.30;52.14;101766.22;5055787;28;45550;-59
2022/03/15 01:27:46;;;;;;;;;5.75;5.25;;;;;12.34;51.96;101767.50;5056094;28;45415;-57
2022/03/15 01:30:11;;;;;;;;;5.00;4.50;;;;;12.32;52.04;101761.38;5056037;28;45444;-59
2022/03/15 01:32:37;;;;;;;;;5.50;4.25;;;;;12.38;52.16;101775.41;5056372;28;45284;-60
2022/03/15 01:35:04;;;;;;;;;8.75;6.50;;;;;12.36;51.91;101763.72;5054619;28;45370;-58
2022/03/15 01:37:30;;;;;;;;;5.00;5.00;;;;;12.32;51.97;101752.25;5055694;28;45377;-59
2022/03/15 01:39:55;;;;;;;;;8.25;4.75;;;;;12.33;52.15;101756.72;5054543;28;45332;-59
2022/03/15 01:42:21;;;;;;;;;6.00;6.00;;;;;12.36;52.19;101758.19;5056246;28;45601;-60
2022/03/15 01:44:47;;;;;;;;;5.00;4.75;;;;;12.02;52.27;101703.69;5055754;28;46344;-59
2022/03/15 01:47:13;;;;;;;;;5.40;4.60;;;;;12.30;52.40;101735.94;5037942;28;45460;-60
2022/03/15 01:49:39;;;;;;;;;3.80;3.80;;;;;12.01;52.99;101691.00;5055954;28;45354;-59
2022/03/15 01:52:05;;;;;;;;;10.25;6.50;;;;;12.26;53.28;101731.03;5054716;28;45657;-60
2022/03/15 01:54:32;;;;;;;;;5.60;5.00;;;;;12.28;53.30;101739.94;5055647;28;46075;-59
2022/03/15 01:56:57;;;;;;;;;4.80;3.80;;;;;12.27;53.01;101727.25;5055574;28;45256;-59
2022/03/15 01:59:23;;;;;;;;;5.75;3.50;;;;;12.27;53.14;101716.22;5055739;28;45290;-60
2022/03/15 02:01:48;;;;;;;;;4.75;3.75;;;;;12.25;53.37;101719.19;5024449;28;45779;-59
2022/03/15 02:04:15;;;;;;;;;9.00;5.25;;;;;12.26;53.69;101723.63;5052802;28;46342;-58
2022/03/15 02:06:42;;;;;;;;;3.60;3.00;;;;;12.20;54.16;101717.03;5055494;28;45542;-57
2022/03/15 02:09:09;;;;;;;;;7.80;5.80;;;;;12.24;54.08;101711.97;5055656;28;45420;-57
2022/03/15 02:11:35;;;;;;;;;3.60;3.60;;;;;12.19;54.25;101707.06;5055901;28;45347;-59
2022/03/15 02:14:01;;;;;;;;;5.80;5.80;;;;;11.58;54.15;101616.78;5087839;27;47905;-59
2022/03/15 02:16:27;;;;;;;;;6.60;5.80;;;;;11.83;54.71;101654.84;5055319;28;45336;-58
2022/03/15 02:18:53;;;;;;;;;4.25;4.25;;;;;11.90;55.12;101666.78;5088158;27;45736;-59
2022/03/15 02:21:18;;;;;;;;;7.50;5.50;;;;;12.17;55.32;101713.81;5071078;28;45444;-59
2022/03/15 02:23:44;;;;;;;;;7.25;7.25;;;;;12.14;54.95;101698.56;5087813;27;47257;-57
2022/03/15 02:26:09;;;;;;;;;7.00;5.00;;;;;12.14;55.47;101694.94;5055076;28;45250;-60
2022/03/15 02:28:35;;;;;;;;;8.00;7.25;;;;;12.18;55.72;101690.75;5053974;28;45362;-59
2022/03/15 02:31:00;;;;;;;;;7.25;7.25;;;;;12.17;55.57;101695.41;5054143;28;45270;-59
2022/03/15 02:33:26;;;;;;;;;8.00;6.50;;;;;12.13;56.06;101677.59;5055285;28;45998;-60
2022/03/15 02:35:52;;;;;;;;;5.25;5.00;;;;;12.14;55.66;101681.19;5070506;28;45443;-61
2022/03/15 02:38:17;;;;;;;;;8.00;5.00;;;;;12.14;56.37;101684.78;5055245;27;45403;-59
2022/03/15 02:40:43;;;;;;;;;4.00;4.00;;;;;12.14;56.57;101686.69;5055430;28;45388;-59
2022/03/15 02:43:08;;;;;;;;;13.50;10.25;;;;;12.17;56.54;101675.28;5054874;28;46014;-59
2022/03/15 02:45:34;;;;;;;;;8.50;6.00;;;;;12.19;56.50;101675.94;5055170;28;45389;-60
2022/03/15 02:48:00;;;;;;;;;7.50;7.50;;;;;12.16;56.95;101676.31;5055090;27;45372;-65
2022/03/15 02:50:25;;;;;;;;;11.50;11.50;;;;;12.03;57.32;101650.44;5055726;28;45361;-60
2022/03/15 02:52:51;;;;;;;;;14.75;11.00;;;;;12.05;57.41;101648.31;5074073;28;47627;-60
2022/03/15 02:55:18;;;;;;;;;15.75;15.75;;;;;12.21;57.19;101668.31;5058420;28;45424;-60
2022/03/15 02:57:44;;;;;;;;;16.80;15.60;;;;;12.24;57.05;101667.06;5058465;28;45429;-59
2022/03/15 03:00:10;;;;;;;;;17.00;15.20;;;;;12.19;57.49;101657.53;5058747;27;45263;-60
2022/03/15 03:02:36;;;;;;;;;18.80;18.40;;;;;12.22;57.58;101653.50;5058477;28;45900;-57
2022/03/15 03:05:02;;;;;;;;;28.00;24.80;;;;;12.22;58.03;101659.00;5041884;28;45962;-58
2022/03/15 03:07:28;;;;;;;;;24.00;20.75;;;;;12.10;58.58;101630.38;5055867;28;45502;-58
2022/03/15 03:09:53;;;;;;;;;20.00;18.00;;;;;12.20;58.84;101650.13;5052858;28;45336;-58
2022/03/15 03:12:19;;;;;;;;;15.50;14.50;;;;;11.99;58.68;101616.06;5058184;28;45463;-58
2022/03/15 03:14:46;;;;;;;;;16.25;11.50;;;;;12.18;58.82;101653.06;5058231;28;45669;-58
2022/03/15 03:17:12;;;;;;;;;13.40;13.40;;;;;12.18;59.04;101643.97;5058562;28;45316;-56
2022/03/15 03:19:38;;;;;;;;;10.00;10.00;;;;;12.15;59.64;101649.84;5058713;28;45368;-58
2022/03/15 03:22:05;;;;;;;;;15.60;10.60;;;;;11.40;59.71;101532.88;5058168;28;46244;-59
2022/03/15 03:24:30;;;;;;;;;7.60;6.00;;;;;12.06;60.38;101641.75;5058216;28;45323;-58
2022/03/15 03:26:56;;;;;;;;;8.00;8.00;;;;;12.04;60.95;101649.38;5058430;28;45470;-60
2022/03/15 03:29:22;;;;;;;;;6.25;6.25;;;;;11.97;61.78;101644.81;5058641;27;45438;-59
2022/03/15 03:31:48;;;;;;;;;8.75;8.75;;;;;11.87;61.72;101632.28;5057766;28;46000;-60
2022/03/15 03:34:13;;;;;;;;;10.00;9.80;;;;;11.79;62.13;101615.88;5090798;27;45409;-61
2022/03/15 03:36:39;;;;;;;;;7.25;5.25;;;;;11.97;63.05;101651.19;5058223;28;45408;-57
2022/03/15 03:39:06;;;;;;;;;7.00;7.00;;;;;11.97;62.47;101650.31;5058441;28;45569;-58
2022/03/15 03:41:31;;;;;;;;;6.20;5.00;;;;;11.90;63.63;101650.28;5073394;27;46616;-58
2022/03/15 03:43:57;;;;;;;;;7.50;6.75;;;;;11.87;63.45;101647.91;5057951;28;45259;-57
2022/03/15 03:46:22;;;;;;;;;8.00;8.00;;;;;11.85;63.23;101648.09;5090825;27;45398;-60
2022/03/15 03:48:50;;;;;;;;;8.25;8.25;;;;;11.65;64.12;101613.03;5057003;28;45582;-59
2022/03/15 03:51:17;;;;;;;;;9.20;7.20;;;;;11.87;64.10;101642.41;5057381;28;46327;-58
2022/03/15 03:53:42;;;;;;;;;9.60;9.00;;;;;11.78;64.53;101631.56;5058183;28;45376;-59
2022/03/15 03:56:08;;;;;;;;;8.50;6.00;;;;;11.87;64.60;101642.41;5057479;27;45467;-59
2022/03/15 03:58:34;;;;;;;;;8.00;7.00;;;;;11.86;64.85;101633.31;5057922;28;45429;-58
2022/03/15 04:01:01;;;;;;;;;9.20;7.00;;;;;11.87;64.72;101639.66;5089758;27;45734;-58
2022/03/15 04:03:28;;;;;;;;;7.40;5.60;;;;;11.80;65.01;101640.47;5056149;28;45381;-58
2022/03/15 04:05:54;;;;;;;;;9.60;8.00;;;;;11.76;64.95;101627.31;5057536;28;45317;-59
2022/03/15 04:08:19;;;;;;;;;8.25;8.00;;;;;11.74;65.74;101630.25;5057589;28;45717;-58
2022/03/15 04:10:46;;;;;;;;;10.75;8.00;;;;;11.74;65.64;101624.75;5057002;28;46493;-58
2022/03/15 04:13:18;;;;;;;;;13.20;9.00;;;;;11.65;66.01;101615.78;5057187;28;45530;-58
2022/03/15 04:15:47;;;;;;;;;10.80;9.20;;;;;11.37;66.17;101571.78;5057238;28;45391;-58
2022/03/15 04:18:12;;;;;;;;;10.20;9.80;;;;;11.47;66.12;101599.75;5057642;28;45368;-56
2022/03/15 04:20:39;;;;;;;;;9.75;9.75;;;;;11.08;66.97;101529.63;5056887;28;46911;-57
2022/03/15 04:23:04;;;;;;;;;10.80;8.60;;;;;11.65;66.44;101613.03;5057323;28;45504;-57
2022/03/15 04:25:30;;;;;;;;;9.25;9.00;;;;;11.61;67.44;101603.50;5056904;28;45364;-54
2022/03/15 04:28:00;;;;;;;;;9.00;8.75;;;;;11.66;67.04;101612.00;5057436;28;45814;-58
2022/03/15 04:30:29;;;;;;;;;9.40;9.40;;;;;11.57;66.70;101593.94;5055439;28;47525;-58
2022/03/15 04:32:55;;;;;;;;;10.60;9.60;;;;;11.72;67.08;101615.84;5056667;28;45987;-56
2022/03/15 04:35:20;;;;;;;;;11.00;10.50;;;;;11.74;66.88;101601.91;5055920;28;45463;-58
2022/03/15 04:37:46;;;;;;;;;9.25;8.25;;;;;11.75;67.27;101612.69;5056829;28;45317;-55
2022/03/15 04:40:12;;;;;;;;;8.20;8.20;;;;;11.59;66.93;101577.25;5056594;27;46588;-58
2022/03/15 04:42:38;;;;;;;;;10.00;8.75;;;;;11.80;67.16;101601.13;5056968;28;45312;-57
2022/03/15 04:45:04;;;;;;;;;8.75;8.00;;;;;11.69;67.40;101580.47;5055723;28;45476;-59
2022/03/15 04:47:29;;;;;;;;;10.50;9.25;;;;;11.78;67.50;101592.19;5055273;28;45537;-58
2022/03/15 04:49:55;;;;;;;;;8.00;6.50;;;;;11.75;67.44;101590.69;5054928;28;45905;-56
2022/03/15 04:52:20;;;;;;;;;10.50;10.50;;;;;11.57;67.10;101551.84;5056203;28;45372;-56
2022/03/15 04:54:46;;;;;;;;;9.50;8.50;;;;;11.87;67.15;101603.91;5056551;28;45273;-59
2022/03/15 04:57:12;;;;;;;;;9.00;8.25;;;;;11.83;67.34;101602.59;5056836;28;45432;-58
2022/03/15 04:59:37;;;;;;;;;11.25;9.00;;;;;11.80;67.87;101595.63;5056640;28;45551;-58
2022/03/15 05:02:03;;;;;;;;;11.25;11.00;;;;;11.85;67.79;101601.34;5056512;28;45487;-55
2022/03/15 05:04:28;;;;;;;;;9.50;9.00;;;;;11.85;67.72;101584.84;5055714;28;45477;-58
2022/03/15 05:06:55;;;;;;;;;9.20;8.60;;;;;11.90;67.67;101595.28;5056338;27;45372;-59
2022/03/15 05:09:21;;;;;;;;;13.00;9.50;;;;;11.90;68.15;101595.28;5056433;28;46315;-57
2022/03/15 05:11:47;;;;;;;;;11.75;8.75;;;;;11.91;67.72;101597.78;5056206;28;45329;-57
2022/03/15 05:14:12;;;;;;;;;9.60;8.80;;;;;11.89;68.00;101588.91;5055925;28;45409;-58
2022/03/15 05:16:38;;;;;;;;;0.75;0.75;;;;;11.80;68.47;101565.34;5072320;28;45564;-56
2022/03/15 05:19:03;;;;;;;;;8.25;6.25;;;;;11.87;68.93;101582.75;5056412;28;45316;-56
2022/03/15 05:21:29;;;;;;;;;8.75;8.75;;;;;11.88;68.76;101586.34;5071416;28;45851;-58
2022/03/15 05:23:55;;;;;;;;;10.75;9.50;;;;;11.81;68.06;101564.31;5056203;28;45352;-58
2022/03/15 05:26:21;;;;;;;;;11.75;10.50;;;;;11.96;68.23;101599.97;5072036;28;45348;-58
2022/03/15 05:28:49;;;;;;;;;10.80;8.20;;;;;11.96;68.87;101591.72;5088463;27;47501;-54
2022/03/15 05:31:15;;;;;;;;;8.60;8.60;;;;;11.93;68.91;101589.34;5055244;28;45512;-56
2022/03/15 05:33:41;;;;;;;;;11.60;8.80;;;;;11.97;68.74;101598.91;5056176;28;45461;-57
2022/03/15 05:36:06;;;;;;;;;8.00;8.00;;;;;11.98;69.13;101586.00;5056261;28;45446;-57
2022/03/15 05:38:32;;;;;;;;;10.00;9.00;;;;;12.01;69.19;101594.69;5056007;28;45769;-58
2022/03/15 05:40:57;;;;;;;;;10.00;10.00;;;;;11.99;69.38;101606.94;5056090;28;45237;-57
2022/03/15 05:43:23;;;;;;;;;10.25;10.25;;;;;11.97;68.80;101598.91;5071703;28;45643;-52
2022/03/15 05:45:50;;;;;;;;;9.50;9.50;;;;;11.92;69.46;101588.50;5055734;28;45346;-58
2022/03/15 05:48:16;;;;;;;;;13.00;9.20;;;;;11.95;69.30;101583.66;5088064;27;45594;-58
2022/03/15 05:50:41;;;;;;;;;8.00;8.00;;;;;11.93;69.39;101592.09;5056151;28;45400;-57
2022/03/15 05:53:07;;;;;;;;;12.00;9.00;;;;;11.85;69.90;101592.25;5055810;28;45664;-55
2022/03/15 05:55:33;;;;;;;;;11.80;10.00;;;;;11.74;69.78;101578.00;5055807;28;45573;-56
2022/03/15 05:57:59;;;;;;;;;11.40;11.00;;;;;11.83;70.32;101584.19;5054368;28;48316;-59
2022/03/15 06:00:26;;;;;;;;;10.00;9.00;;;;;11.93;69.94;101614.09;5055196;28;45458;-59
2022/03/15 06:02:52;;;;;;;;;10.80;9.60;;;;;11.36;70.24;101509.56;5055608;28;45388;-58
2022/03/15 06:05:18;;;;;;;;;9.20;8.80;;;;;11.92;70.35;101599.50;5056091;28;45271;-59
2022/03/15 06:07:44;;;;;;;;;10.25;9.00;;;;;11.96;70.00;101605.47;5070790;28;45932;-55
2022/03/15 06:10:10;;;;;;;;;9.60;9.60;;;;;11.95;70.21;101608.41;5055339;28;45243;-57
2022/03/15 06:12:35;;;;;;;;;12.75;9.75;;;;;11.97;70.32;101609.06;5037509;28;45594;-59
2022/03/15 06:15:01;;;;;;;;;14.50;13.50;;;;;11.96;69.96;101605.47;5055826;28;45319;-55
2022/03/15 06:17:26;;;;;;;;;11.75;11.75;;;;;11.99;69.97;101624.31;5055307;28;46383;-59
2022/03/15 06:19:52;;;;;;;;;12.00;10.25;;;;;11.95;70.32;101611.16;5055424;28;45332;-57
2022/03/15 06:22:17;;;;;;;;;0.25;0.00;;;;;11.97;70.15;101612.69;5020768;28;45498;-60
2022/03/15 06:24:43;;;;;;;;;9.50;9.50;;;;;11.98;70.54;101610.75;5055143;28;45515;-55
2022/03/15 06:27:08;;;;;;;;;10.25;10.25;;;;;11.96;70.62;101604.63;5054272;28;45393;-55
2022/03/15 06:29:35;;;;;;;;;14.25;10.50;;;;;11.86;70.03;101580.19;5054932;28;45415;-52
2022/03/15 06:32:00;;;;;;;;;10.20;10.00;;;;;12.00;70.96;101615.00;5055326;28;45475;-55
2022/03/15 06:34:26;;;;;;;;;17.00;9.25;;;;;11.99;70.86;101616.06;5055454;28;45322;-52
2022/03/15 06:36:51;;;;;;;;;12.25;12.00;;;;;11.76;71.00;101581.41;5054882;28;45957;-55
2022/03/15 06:39:17;;;;;;;;;13.75;13.75;;;;;11.98;71.21;101605.25;5053881;28;45439;-51
2022/03/15 06:41:43;;;;;;;;;11.25;11.25;;;;;11.95;71.05;101611.16;5055322;28;45261;-56
2022/03/15 06:44:09;;;;;;;;;16.75;13.50;;;;;11.96;71.13;101612.88;5055273;28;45362;-56
2022/03/15 06:46:34;;;;;;;;;14.20;10.40;;;;;12.00;70.63;101614.19;5054842;28;45390;-57
2022/03/15 06:49:00;;;;;;;;;12.00;12.00;;;;;12.05;70.58;101604.28;5055280;28;45353;-60
2022/03/15 06:51:25;;;;;;;;;16.25;15.25;;;;;12.03;70.76;101600.91;5055037;28;45328;-59
2022/03/15 06:53:52;;;;;;;;;14.00;13.50;;;;;12.06;71.23;101606.00;5055474;28;45233;-58
2022/03/15 06:56:17;;;;;;;;;16.60;15.00;;;;;11.99;70.82;101594.06;5054663;28;47145;-58
2022/03/15 06:58:46;;;;;;;;;16.50;14.75;;;;;11.60;71.12;101529.44;5054974;28;45435;-58
2022/03/15 07:01:12;;;;;;;;;14.40;14.40;;;;;11.84;71.13;101561.13;5053890;28;45478;-59
2022/03/15 07:03:37;;;;;;;;;23.75;22.25;;;;;11.88;71.43;101562.44;5070688;28;45245;-57
2022/03/15 07:06:02;;;;;;;;;23.00;17.75;;;;;12.06;71.53;101594.13;5053727;28;46405;-58
2022/03/15 07:08:28;;;;;;;;;17.00;17.00;;;;;12.10;71.12;101597.34;5054312;28;45343;-59
2022/03/15 07:10:54;;;;;;;;;24.25;21.50;;;;;12.09;71.27;101602.00;5054794;28;45333;-58
2022/03/15 07:13:19;;;;;;;;;20.25;18.75;;;;;11.97;70.92;101576.91;5054833;28;45451;-56
2022/03/15 07:15:45;;;;;;;;;23.00;21.75;;;;;12.12;71.10;101606.25;5054275;28;45667;-59
2022/03/15 07:18:11;;;;;;;;;28.50;21.25;;;;;12.15;71.02;101601.19;5053359;28;45234;-57
2022/03/15 07:20:36;;;;;;;;;16.75;15.75;;;;;12.07;71.13;101598.59;5023310;27;45634;-55
2022/03/15 07:23:02;;;;;;;;;22.75;20.00;;;;;12.13;70.88;101607.94;5054525;28;45552;-55
2022/03/15 07:25:27;;;;;;;;;18.50;18.50;;;;;12.13;71.37;101614.31;5052880;28;46120;-58
2022/03/15 07:27:53;;;;;;;;;25.50;22.50;;;;;12.14;71.32;101617.88;5054192;28;45384;-58
2022/03/15 07:30:19;;;;;;;;;22.25;20.50;;;;;12.00;70.74;101583.91;5054659;28;45425;-61
2022/03/15 07:32:44;;;;;;;;;13.00;13.00;;;;;12.00;70.97;101589.41;5024135;27;45548;-61
2022/03/15 07:35:10;;;;;;;;;19.25;18.00;;;;;12.04;71.77;101598.97;5048493;28;46090;-61
2022/03/15 07:37:35;;;;;;;;;21.50;20.75;;;;;12.09;71.00;101603.88;5050670;28;45738;-64
2022/03/15 07:40:01;;;;;;;;;28.75;26.25;;;;;11.98;71.17;101586.84;5052198;28;45448;-63
2022/03/15 07:42:27;;;;;;;;;26.50;22.75;;;;;12.10;71.40;101602.84;5068989;28;45511;-64
2022/03/15 07:44:52;;;;;;;;;29.00;27.00;;;;;12.18;71.17;101603.50;5051610;28;46254;-64
2022/03/15 07:47:18;;;;;;;;;22.25;19.75;;;;;12.19;71.22;101604.38;5053621;28;45553;-63
2022/03/15 07:49:44;;;;;;;;;20.75;17.50;;;;;12.19;71.10;101601.63;5050852;28;45452;-63
2022/03/15 07:52:10;;;;;;;;;23.75;22.75;;;;;12.24;71.63;101606.53;5051881;28;45407;-62
2022/03/15 07:54:35;;;;;;;;;34.40;27.80;;;;;12.19;71.29;101593.38;5053273;28;45409;-63
2022/03/15 07:57:01;;;;;;;;;29.50;23.25;;;;;12.24;71.16;101596.38;5053301;28;45959;-60
2022/03/15 07:59:30;;;;;;;;;24.50;23.50;;;;;12.25;72.08;101594.47;5053744;28;45737;-60
2022/03/15 08:01:56;;;;;;;;;19.80;17.20;;;;;12.24;71.81;101596.38;5052066;28;45491;-62
2022/03/15 08:04:21;;;;;;;;;20.25;20.25;;;;;12.28;71.61;101599.56;5053446;28;45507;-61
2022/03/15 08:06:47;;;;;;;;;20.25;18.50;;;;;12.25;71.35;101573.31;5053060;28;45448;-61
2022/03/15 08:09:14;;;;;;;;;22.00;20.25;;;;;12.34;71.05;101582.25;5053105;28;45482;-60
2022/03/15 08:11:40;;;;;;;;;23.20;18.60;;;;;12.36;70.81;101590.28;5053497;28;45496;-61
2022/03/15 08:14:07;;;;;;;;;25.20;23.20;;;;;12.35;71.06;101600.47;5050535;28;45742;-60
2022/03/15 08:16:32;;;;;;;;;19.00;18.80;;;;;12.29;71.27;101585.63;5053247;28;45479;-60
2022/03/15 08:18:58;;;;;;;;;24.00;21.00;;;;;12.36;71.26;101593.91;5053299;28;45494;-60
2022/03/15 08:21:25;;;;;;;;;22.75;20.25;;;;;12.36;71.35;101591.16;5034095;28;45464;-60
2022/03/15 08:23:51;;;;;;;;;20.40;19.60;;;;;12.34;71.47;101587.75;5024358;28;47934;-65
2022/03/15 08:26:18;;;;;;;;;24.00;23.25;;;;;12.17;71.16;101563.28;5052031;28;45502;-62
2022/03/15 08:28:45;;;;;;;;;29.40;22.80;;;;;12.32;71.92;101576.06;5051510;28;45492;-64
2022/03/15 08:31:11;;;;;;;;;21.40;17.60;;;;;12.38;71.71;101585.44;5051575;28;45355;-61
2022/03/15 08:33:36;;;;;;;;;19.50;18.00;;;;;12.01;72.07;101525.91;5042033;27;46508;-63
2022/03/15 08:36:02;;;;;;;;;19.00;18.25;;;;;12.29;71.74;101590.25;5051821;28;45418;-62
2022/03/15 08:38:29;;;;;;;;;19.00;19.00;;;;;12.34;71.69;101596.00;5051955;28;45801;-63
2022/03/15 08:40:55;;;;;;;;;22.60;19.40;;;;;12.34;71.30;101601.50;5051568;28;45836;-62
2022/03/15 08:43:20;;;;;;;;;22.00;19.60;;;;;12.37;71.46;101608.53;5052643;28;46997;-61
2022/03/15 08:45:45;;;;;;;;;21.75;20.50;;;;;12.37;71.58;101611.28;5053048;28;45764;-61
2022/03/15 08:48:11;;;;;;;;;22.75;21.75;;;;;12.37;71.65;101614.03;5051819;28;45712;-61
2022/03/15 08:50:37;;;;;;;;;20.25;17.50;;;;;12.26;71.74;101609.91;5050281;28;45822;-65
2022/03/15 08:53:02;;;;;;;;;17.50;17.00;;;;;12.18;72.14;101608.19;5052424;28;47899;-62
2022/03/15 08:55:28;;;;;;;;;23.25;21.75;;;;;12.14;72.40;101612.38;5052669;28;45741;-63
2022/03/15 08:57:54;;;;;;;;;20.60;20.60;;;;;12.11;72.47;101610.88;5051998;28;45468;-64
2022/03/15 09:00:20;;;;;;;;;15.25;15.25;;;;;12.09;72.10;101610.25;5081983;27;45471;-62
2022/03/15 09:02:45;;;;;;;;;21.00;20.00;;;;;12.20;72.19;101612.44;5051112;28;46430;-67
2022/03/15 09:05:18;;;;;;;;;52.00;42.50;;;;;12.27;71.92;101606.13;5051805;28;45788;-63
2022/03/15 09:07:47;;;;;;;;;23.20;20.20;;;;;12.28;72.07;101614.16;5052656;28;45764;-63
2022/03/15 09:10:12;;;;;;;;;108.33;85.67;;;;;12.10;72.22;101594.59;5051349;28;45633;-63
2022/03/15 09:12:38;;;;;;;;;23.75;19.50;;;;;12.29;71.99;101615.03;5052051;28;45549;-64
2022/03/15 09:15:04;;;;;;;;;29.50;25.00;;;;;12.28;72.07;101611.41;5049523;28;45448;-64
2022/03/15 09:17:30;;;;;;;;;21.00;19.00;;;;;12.36;71.91;101623.31;5050687;28;45524;-63
2022/03/15 09:19:55;;;;;;;;;19.00;19.00;;;;;12.34;71.87;101627.13;5052656;28;45795;-60
2022/03/15 09:22:20;;;;;;;;;22.25;21.75;;;;;12.14;72.38;101599.50;5050499;28;45550;-61
2022/03/15 09:24:46;;;;;;;;;24.75;23.50;;;;;12.30;72.35;101617.59;5051889;28;45495;-60
2022/03/15 09:27:12;;;;;;;;;22.25;20.75;;;;;12.26;72.04;101607.16;5049603;28;45473;-61
2022/03/15 09:29:38;;;;;;;;;21.80;19.80;;;;;12.38;72.16;101619.31;5035962;27;45976;-62
2022/03/15 09:32:05;;;;;;;;;19.00;19.00;;;;;12.40;72.54;101621.88;5039628;27;45583;-62
2022/03/15 09:34:32;;;;;;;;;24.60;19.20;;;;;12.33;72.87;101621.84;5020806;28;45559;-59
2022/03/15 09:36:59;;;;;;;;;22.80;18.40;;;;;12.26;72.26;101605.28;5052362;28;45484;-62
2022/03/15 09:39:25;;;;;;;;;22.40;19.40;;;;;12.31;72.62;101608.28;5035031;28;45639;-60
2022/03/15 09:41:51;;;;;;;;;20.60;18.20;;;;;12.27;72.72;101601.47;5055899;28;46834;-60
2022/03/15 09:44:17;;;;;;;;;21.75;18.50;;;;;12.35;72.61;101605.97;5052383;28;45624;-55
2022/03/15 09:46:43;;;;;;;;;21.60;20.20;;;;;12.43;72.17;101605.78;5055786;28;45398;-63
2022/03/15 09:49:09;;;;;;;;;23.20;22.00;;;;;12.50;72.14;101602.22;5035384;27;45496;-58
2022/03/15 09:51:36;;;;;;;;;23.20;20.00;;;;;12.47;72.21;101584.19;5053014;28;46039;-60
2022/03/15 09:54:02;;;;;;;;;23.60;18.00;;;;;12.40;72.08;101569.56;5054308;28;45503;-59
2022/03/15 09:56:28;;;;;;;;;30.00;27.80;;;;;12.57;72.47;101586.59;5052714;28;45544;-58
2022/03/15 09:58:54;;;;;;;;;54.25;44.50;;;;;12.57;72.09;101581.06;5051396;27;45452;-56
2022/03/15 10:01:20;;;;;;;;;26.75;21.00;;;;;12.59;72.38;101588.09;5052935;28;47219;-56
2022/03/15 10:03:46;;;;;;;;;29.25;24.25;;;;;12.60;72.11;101583.44;5054658;28;45583;-63
2022/03/15 10:06:13;;;;;;;;;27.40;25.40;;;;;12.63;71.75;101577.50;5054560;28;45396;-57
2022/03/15 10:08:39;;;;;;;;;18.80;18.80;;;;;12.61;71.90;101577.69;5053237;28;45347;-58
2022/03/15 10:11:05;;;;;;;;;25.50;22.50;;;;;12.63;72.22;101584.94;5052694;28;45676;-59
2022/03/15 10:13:31;;;;;;;;;29.60;24.00;;;;;12.59;71.99;101581.72;5054569;28;45376;-60
2022/03/15 10:15:59;;;;;;;;;23.60;21.60;;;;;12.66;72.00;101582.63;5053767;28;45404;-59
2022/03/15 10:18:25;;;;;;;;;24.40;19.60;;;;;12.66;72.08;101579.00;5053570;28;45439;-60
2022/03/15 10:20:50;;;;;;;;;23.50;23.50;;;;;12.67;71.78;101577.94;5053371;28;45909;-62
2022/03/15 10:23:16;;;;;;;;;27.75;22.75;;;;;12.68;72.37;101585.16;5054702;28;45392;-60
2022/03/15 10:25:47;;;;;;;;;30.00;24.60;;;;;12.63;72.03;101590.44;5070623;28;45741;-61
2022/03/15 10:28:13;;;;;;;;;20.60;19.40;;;;;12.24;72.17;101521.19;5055356;28;45567;-61
2022/03/15 10:30:39;;;;;;;;;25.00;21.60;;;;;12.61;72.00;101579.63;5048859;28;45806;-61
2022/03/15 10:33:06;;;;;;;;;27.00;24.50;;;;;12.35;72.12;101537.16;5052198;28;45413;-62
2022/03/15 10:35:36;;;;;;;;;23.80;21.20;;;;;12.61;71.90;101572.19;5038384;28;46029;-60
2022/03/15 10:38:02;;;;;;;;;20.60;18.60;;;;;12.66;71.74;101570.75;5053845;28;45590;-61
2022/03/15 10:40:41;;;;;;;;;25.50;23.25;;;;;12.18;71.32;101498.09;5053811;28;46262;-60
2022/03/15 10:43:10;;;;;;;;;30.00;26.80;;;;;12.65;71.54;101571.81;5036043;28;45627;-61
2022/03/15 10:45:38;;;;;;;;;24.20;24.00;;;;;12.67;71.79;101580.69;5054486;28;45326;-59
2022/03/15 10:48:20;;;;;;;;;26.60;22.40;;;;;12.39;71.52;101532.06;5054909;28;45361;-59
2022/03/15 10:51:06;;;;;;;;;25.40;21.80;;;;;12.67;71.52;101566.94;5036400;28;46082;-55
2022/03/15 10:53:37;;;;;;;;;24.80;24.40;;;;;12.66;71.39;101565.22;5036436;28;45307;-53
2022/03/15 10:56:09;;;;;;;;;25.20;23.40;;;;;12.62;71.55;101562.03;5051592;28;45445;-56
2022/03/15 10:58:42;;;;;;;;;25.20;23.40;;;;;12.53;71.67;101535.75;5053869;28;45451;-52
2022/03/15 11:01:11;;;;;;;;;28.20;25.60;;;;;12.43;71.47;101516.84;5052209;28;45502;-58
2022/03/15 11:03:36;;;;;;;;;27.40;21.00;;;;;12.69;71.32;101557.41;5053585;28;45379;-53
2022/03/15 11:06:08;;;;;;;;;28.00;24.50;;;;;12.56;71.54;101536.19;5053079;28;45634;-57
2022/03/15 11:08:34;;;;;;;;;25.60;22.40;;;;;12.79;71.61;101550.63;5051098;28;45454;-56
2022/03/15 11:11:03;;;;;;;;;28.75;25.00;;;;;12.82;71.12;101562.09;5053465;28;45381;-50